Time;durP1;ratioP1;P1;durP2;ratioP2;P2;SDS_P1;SDS_P2;PMS_P1;PMS_P2;Temp;Humidity;BMP_temperature;BMP_pressure;BME280_temperature;BME280_humidity;BME280_pressure;Samples;Min_cycle;Max_cycle;Signal;HPM_P1;HPM_P2
2021/01/04 00:00:21;;;;;;;60.83;28.90;;;;;;;3.89;68.71;96113.13;5065829;28;21188;-67
2021/01/04 00:02:51;;;;;;;55.77;30.07;;;;;;;3.95;68.37;96111.75;5065471;28;20826;-66
2021/01/04 00:05:17;;;;;;;58.07;29.20;;;;;;;3.92;68.45;96109.44;5066216;28;20443;-66
2021/01/04 00:07:58;;;;;;;55.43;28.33;;;;;;;3.97;68.45;96109.84;5068812;28;20903;-67
2021/01/04 00:11:04;;;;;;;58.30;30.37;;;;;;;4.02;68.40;96107.69;5066812;28;20229;-67
2021/01/04 00:13:49;;;;;;;53.07;28.00;;;;;;;4.04;68.54;96110.13;5055243;28;20445;-67
2021/01/04 00:16:21;;;;;;;53.20;29.63;;;;;;;4.02;68.69;96109.44;5062228;28;20948;-66
2021/01/04 00:19:10;;;;;;;60.47;30.13;;;;;;;3.96;68.61;96109.03;5067789;28;20425;-67
2021/01/04 00:22:00;;;;;;;58.53;30.50;;;;;;;4.05;68.00;96102.19;5061120;28;20419;-64
2021/01/04 00:24:38;;;;;;;57.50;29.33;;;;;;;3.99;68.82;96098.38;5068698;28;20436;-65
2021/01/04 00:27:09;;;;;;;60.30;30.33;;;;;;;3.99;68.34;96098.38;5071299;28;20551;-68
2021/01/04 00:29:35;;;;;;;55.17;29.20;;;;;;;3.95;68.61;96098.78;5064181;28;20474;-67
2021/01/04 00:32:06;;;;;;;51.77;28.63;;;;;;;4.03;68.46;96098.94;5066238;28;20880;-67
2021/01/04 00:34:40;;;;;;;52.70;29.67;;;;;;;3.75;69.16;96103.16;5060962;28;20202;-67
2021/01/04 00:37:29;;;;;;;57.13;31.23;;;;;;;3.91;69.09;96107.78;5064738;28;20433;-69
2021/01/04 00:40:11;;;;;;;54.70;30.87;;;;;;;3.61;69.41;96110.38;5051859;28;20937;-66
2021/01/04 00:42:50;;;;;;;58.17;31.40;;;;;;;3.56;69.69;96111.75;5061970;28;20424;-65
2021/01/04 00:45:22;;;;;;;63.97;31.37;;;;;;;3.54;69.70;96107.53;5046747;28;20453;-67
2021/01/04 00:48:11;;;;;;;67.80;31.07;;;;;;;3.57;69.95;96103.03;5054443;28;21003;-66
2021/01/04 00:50:56;;;;;;;67.53;31.53;;;;;;;3.54;69.88;96109.31;5051661;28;20492;-68
2021/01/04 00:53:33;;;;;;;54.80;30.73;;;;;;;3.52;69.79;96104.28;5055008;28;20414;-68
2021/01/04 00:56:38;;;;;;;60.17;31.03;;;;;;;3.53;70.20;96103.28;5038255;28;20417;-66
2021/01/04 00:59:27;;;;;;;61.57;31.63;;;;;;;3.57;69.47;96110.81;5055275;28;20911;-65
2021/01/04 01:02:23;;;;;;;65.80;31.63;;;;;;;3.60;69.49;96113.13;5069834;28;20425;-65
2021/01/04 01:04:55;;;;;;;68.63;31.70;;;;;;;3.44;70.21;96114.47;5072034;28;20429;-66
2021/01/04 01:08:02;;;;;;;63.03;30.47;;;;;;;3.39;70.63;96111.47;5071108;28;20764;-66
2021/01/04 01:10:30;;;;;;;64.23;31.90;;;;;;;3.56;69.72;96122.94;5061262;28;20825;-65
2021/01/04 01:13:08;;;;;;;60.63;31.97;;;;;;;3.62;69.71;96124.19;5071871;28;20934;-65
2021/01/04 01:15:36;;;;;;;63.73;31.80;;;;;;;3.60;69.39;96119.13;5052541;28;20424;-68
2021/01/04 01:18:08;;;;;;;69.40;31.93;;;;;;;3.63;69.47;96110.28;5072401;28;20420;-66
2021/01/04 01:20:41;;;;;;;59.80;30.97;;;;;;;3.73;69.21;96121.47;5062090;28;20447;-66
2021/01/04 01:23:11;;;;;;;60.67;30.43;;;;;;;3.66;69.22;96112.56;5066494;28;20424;-66
2021/01/04 01:25:55;;;;;;;62.43;30.60;;;;;;;3.74;69.57;96119.66;5081532;28;20469;-67
2021/01/04 01:28:36;;;;;;;59.87;31.00;;;;;;;3.76;69.04;96123.78;5065955;28;20409;-65
2021/01/04 01:31:33;;;;;;;60.40;29.57;;;;;;;3.79;69.34;96125.28;5060286;28;20454;-67
2021/01/04 01:34:16;;;;;;;62.47;31.50;;;;;;;3.88;68.82;96121.06;5071256;28;20491;-66
2021/01/04 01:36:49;;;;;;;59.10;30.60;;;;;;;3.86;68.30;96121.16;5071152;28;20466;-67
2021/01/04 01:39:27;;;;;;;66.03;30.50;;;;;;;3.74;68.51;96127.44;5055047;28;20998;-68
2021/01/04 01:42:11;;;;;;;66.13;31.00;;;;;;;3.77;68.33;96124.59;5068243;28;20433;-67
2021/01/04 01:44:44;;;;;;;55.70;28.37;;;;;;;3.75;68.42;96129.91;5069965;28;20557;-66
2021/01/04 01:47:18;;;;;;;58.77;29.67;;;;;;;3.66;68.94;96125.53;5070352;28;20421;-65
2021/01/04 01:50:19;;;;;;;59.00;29.37;;;;;;;3.71;68.99;96127.75;5062411;28;20460;-66
2021/01/04 01:53:06;;;;;;;58.90;30.83;;;;;;;3.83;68.56;96131.84;5046035;28;20509;-65
2021/01/04 01:55:47;;;;;;;53.87;27.17;;;;;;;3.93;68.42;96131.81;5069781;28;20440;-67
2021/01/04 01:58:37;;;;;;;51.40;27.70;;;;;;;3.79;68.67;96131.25;5055407;28;20428;-66
2021/01/04 02:01:25;;;;;;;54.83;29.37;;;;;;;3.88;68.50;96126.25;5070560;28;20547;-66
2021/01/04 02:04:17;;;;;;;57.30;28.20;;;;;;;3.95;68.07;96129.91;5062320;28;20954;-66
2021/01/04 02:06:58;;;;;;;57.93;30.63;;;;;;;4.03;67.98;96124.88;5068832;28;20456;-65
2021/01/04 02:09:28;;;;;;;55.40;27.93;;;;;;;3.91;67.60;96133.72;5058123;28;21041;-64
2021/01/04 02:12:09;;;;;;;56.87;29.90;;;;;;;3.83;68.16;96130.03;5069716;28;20422;-67
2021/01/04 02:14:56;;;;;;;67.70;30.43;;;;;;;3.74;67.72;96130.03;5069668;28;20997;-67
2021/01/04 02:17:55;;;;;;;56.63;29.70;;;;;;;3.84;67.92;96121.31;5064079;28;20412;-64
2021/01/04 02:20:51;;;;;;;55.57;29.00;;;;;;;3.84;67.31;96121.31;5049950;28;20424;-66
2021/01/04 02:23:28;;;;;;;61.50;29.83;;;;;;;3.95;68.26;96128.16;5067158;28;20423;-68
2021/01/04 02:25:55;;;;;;;62.13;29.27;;;;;;;4.03;67.24;96124.03;5071245;28;20420;-65
2021/01/04 02:28:25;;;;;;;59.33;29.73;;;;;;;3.92;67.94;96128.41;5069116;28;21054;-64
2021/01/04 02:30:51;;;;;;;58.07;29.73;;;;;;;3.86;67.53;96118.56;5066506;28;20531;-64
2021/01/04 02:33:17;;;;;;;55.17;29.93;;;;;;;3.64;68.80;96120.50;5062289;28;20421;-67
2021/01/04 02:35:44;;;;;;;61.70;30.17;;;;;;;3.73;68.22;96124.06;5073084;28;20429;-66
2021/01/04 02:38:10;;;;;;;60.03;30.80;;;;;;;3.84;68.51;96120.50;5070095;28;20424;-65
2021/01/04 02:40:36;;;;;;;56.60;29.00;;;;;;;3.83;68.65;96119.69;5072811;28;20785;-68
2021/01/04 02:43:02;;;;;;;66.47;30.37;;;;;;;3.93;68.00;96118.84;5072566;28;20417;-66
2021/01/04 02:45:30;;;;;;;56.47;29.07;;;;;;;4.00;67.37;96112.19;5073375;28;20634;-67
2021/01/04 02:47:59;;;;;;;61.37;30.00;;;;;;;4.12;67.47;96118.84;5073144;28;20416;-66
2021/01/04 02:50:43;;;;;;;61.47;28.43;;;;;;;4.03;67.53;96119.69;5065862;28;20457;-66
2021/01/04 02:53:46;;;;;;;50.17;27.83;;;;;;;3.84;67.79;96116.13;5057426;28;20415;-66
2021/01/04 02:57:03;;;;;;;57.27;29.93;;;;;;;3.93;67.37;96126.63;5059381;28;20413;-66
2021/01/04 02:59:43;;;;;;;51.80;27.07;;;;;;;3.97;67.66;96123.63;5018214;28;20889;-68
2021/01/04 03:02:13;;;;;;;56.97;29.20;;;;;;;3.96;67.63;96121.19;5073491;28;20611;-66
2021/01/04 03:04:39;;;;;;;60.33;28.13;;;;;;;3.69;67.92;96133.88;5074652;28;20562;-67
2021/01/04 03:07:15;;;;;;;52.53;28.63;;;;;;;3.71;68.20;96127.75;5073765;28;20938;-67
2021/01/04 03:09:45;;;;;;;54.23;28.50;;;;;;;3.58;68.71;96140.94;5075292;28;20427;-66
2021/01/04 03:12:37;;;;;;;59.90;29.50;;;;;;;3.62;68.15;96137.13;5074954;28;20417;-65
2021/01/04 03:15:19;;;;;;;54.43;27.80;;;;;;;3.65;67.70;96136.88;5035273;28;20514;-67
2021/01/04 03:18:07;;;;;;;51.30;27.30;;;;;;;3.60;68.23;96139.03;5045656;28;20432;-66
2021/01/04 03:20:34;;;;;;;52.27;27.73;;;;;;;3.45;68.27;96139.44;5071724;28;20417;-64
2021/01/04 03:23:00;;;;;;;51.57;27.10;;;;;;;3.46;68.21;96141.06;5056422;28;20944;-67
2021/01/04 03:25:37;;;;;;;51.80;28.63;;;;;;;3.51;68.42;96136.31;5071735;28;20448;-65
2021/01/04 03:28:05;;;;;;;51.73;26.40;;;;;;;3.68;68.03;96134.81;5073586;28;20293;-67
2021/01/04 03:30:31;;;;;;;53.07;28.90;;;;;;;3.68;67.47;96128.81;5070196;28;20517;-66
2021/01/04 03:32:57;;;;;;;51.60;28.07;;;;;;;3.65;67.67;96131.69;5070740;28;20840;-67
2021/01/04 03:35:23;;;;;;;51.40;29.23;;;;;;;3.71;67.67;96131.13;5072591;28;20209;-67
2021/01/04 03:37:49;;;;;;;53.53;28.57;;;;;;;3.58;68.13;96131.41;5073608;28;20939;-67
2021/01/04 03:40:15;;;;;;;48.90;27.60;;;;;;;3.72;68.16;96127.59;5068587;28;20791;-66
2021/01/04 03:42:41;;;;;;;59.10;29.27;;;;;;;3.82;67.55;96125.00;5068487;28;20431;-66
2021/01/04 03:45:08;;;;;;;50.30;27.80;;;;;;;3.93;67.27;96124.03;5064138;28;20963;-67
2021/01/04 03:47:33;;;;;;;53.87;28.90;;;;;;;4.01;67.36;96126.78;5072120;28;20474;-67
2021/01/04 03:50:03;;;;;;;51.57;27.80;;;;;;;3.99;66.50;96126.09;5063752;28;20520;-67
2021/01/04 03:52:29;;;;;;;53.23;28.80;;;;;;;4.05;66.77;96130.72;5072212;28;20182;-65
2021/01/04 03:54:55;;;;;;;48.10;26.10;;;;;;;4.06;66.33;96134.94;5064662;28;20453;-67
2021/01/04 03:57:20;;;;;;;48.53;26.83;;;;;;;4.10;66.61;96125.94;5073015;28;20186;-66
2021/01/04 03:59:46;;;;;;;52.83;28.07;;;;;;;3.99;66.11;96134.69;5072829;28;20240;-67
2021/01/04 04:02:12;;;;;;;47.57;27.20;;;;;;;4.03;66.68;96135.25;5072876;28;20183;-67
2021/01/04 04:04:40;;;;;;;51.40;28.60;;;;;;;3.99;66.34;96128.69;5072839;28;20232;-65
2021/01/04 04:07:06;;;;;;;50.43;27.73;;;;;;;4.06;66.64;96131.53;5069340;28;20282;-65
2021/01/04 04:09:32;;;;;;;53.07;27.80;;;;;;;4.00;66.57;96130.31;5067717;28;20447;-66
2021/01/04 04:11:57;;;;;;;50.13;27.30;;;;;;;4.01;65.93;96134.56;5072793;28;20189;-66
2021/01/04 04:14:23;;;;;;;52.03;27.73;;;;;;;3.95;65.70;96129.91;5054077;28;20233;-67
2021/01/04 04:16:49;;;;;;;51.03;28.67;;;;;;;3.87;66.28;96129.78;5070649;28;20240;-67
2021/01/04 04:19:15;;;;;;;48.20;26.60;;;;;;;3.90;65.77;96130.31;5072009;28;20182;-67
2021/01/04 04:21:41;;;;;;;51.83;27.60;;;;;;;3.90;66.29;96129.50;5068458;28;20207;-65
2021/01/04 04:24:07;;;;;;;53.40;29.47;;;;;;;3.79;66.80;96130.47;5071704;28;20475;-67
2021/01/04 04:26:32;;;;;;;50.17;28.27;;;;;;;3.73;66.78;96131.81;5071320;28;20205;-67
2021/01/04 04:28:58;;;;;;;57.50;29.53;;;;;;;3.72;67.21;96135.38;5049448;28;20838;-66
2021/01/04 04:31:24;;;;;;;56.00;28.60;;;;;;;3.75;67.22;96132.50;5064417;28;20233;-66
2021/01/04 04:33:50;;;;;;;56.33;28.30;;;;;;;3.73;67.04;96138.75;5071279;28;20206;-67
2021/01/04 04:36:24;;;;;;;52.57;28.70;;;;;;;3.83;67.26;96140.41;5062408;28;20240;-66
2021/01/04 04:38:51;;;;;;;52.80;28.47;;;;;;;3.83;67.09;96135.22;5073336;28;20516;-67
2021/01/04 04:41:43;;;;;;;60.10;30.33;;;;;;;3.92;66.68;96135.34;5063487;28;20471;-68
2021/01/04 04:44:09;;;;;;;56.10;28.87;;;;;;;3.75;66.64;96137.69;5029505;28;20967;-66
2021/01/04 04:46:59;;;;;;;50.83;28.80;;;;;;;3.83;67.11;96143.00;5057256;28;20513;-66
2021/01/04 04:49:41;;;;;;;56.03;28.80;;;;;;;3.45;67.53;96136.84;5046497;28;20183;-67
2021/01/04 04:52:38;;;;;;;53.67;28.07;;;;;;;3.70;67.72;96137.28;5050599;28;20417;-66
2021/01/04 04:55:11;;;;;;;60.07;29.47;;;;;;;3.31;68.46;96139.81;5051705;28;20441;-66
2021/01/04 04:58:07;;;;;;;59.30;30.27;;;;;;;3.59;68.29;96142.59;5033687;28;20796;-67
2021/01/04 05:01:00;;;;;;;57.87;28.00;;;;;;;3.59;68.53;96142.59;5047134;28;20501;-66
2021/01/04 05:03:53;;;;;;;57.03;29.33;;;;;;;3.59;68.52;96145.16;5008254;28;20549;-67
2021/01/04 05:06:26;;;;;;;52.90;30.70;;;;;;;2.96;70.62;96143.66;5034958;28;20437;-66
2021/01/04 05:09:20;;;;;;;58.20;30.77;;;;;;;3.49;68.97;96145.16;5051144;28;20513;-67
2021/01/04 05:11:49;;;;;;;61.13;30.93;;;;;;;3.71;68.32;96144.09;5050676;28;20560;-67
2021/01/04 05:14:22;;;;;;;54.67;30.20;;;;;;;3.64;68.03;96145.59;5052128;28;20507;-66
2021/01/04 05:16:59;;;;;;;55.43;30.03;;;;;;;3.82;68.13;96149.16;5052338;28;20418;-66
2021/01/04 05:19:43;;;;;;;54.33;30.20;;;;;;;3.70;67.86;96150.22;5054256;28;20897;-67
2021/01/04 05:22:32;;;;;;;60.73;31.70;;;;;;;3.48;68.52;96146.94;5042972;28;20414;-66
2021/01/04 05:25:26;;;;;;;53.90;29.27;;;;;;;3.58;69.09;96140.94;5049800;28;20883;-66
2021/01/04 05:28:19;;;;;;;50.00;28.00;;;;;;;3.73;68.29;96149.97;5050798;28;20509;-66
2021/01/04 05:31:26;;;;;;;56.30;30.40;;;;;;;3.81;68.35;96147.50;5032565;28;20912;-67
2021/01/04 05:33:59;;;;;;;59.90;30.97;;;;;;;3.66;68.46;96147.09;5050480;28;20453;-67
2021/01/04 05:36:43;;;;;;;54.60;31.40;;;;;;;3.00;70.55;96145.84;5051565;28;20453;-66
2021/01/04 05:39:20;;;;;;;62.70;31.70;;;;;;;3.46;69.30;96142.84;5051196;28;20417;-67
2021/01/04 05:41:55;;;;;;;56.70;30.67;;;;;;;3.62;68.58;96147.50;5051492;28;20449;-67
2021/01/04 05:44:26;;;;;;;56.63;30.50;;;;;;;3.56;69.24;96142.84;5050733;28;20469;-66
2021/01/04 05:47:19;;;;;;;55.13;30.70;;;;;;;3.64;68.87;96150.78;5051475;28;20425;-67
2021/01/04 05:49:50;;;;;;;58.53;30.43;;;;;;;3.75;68.09;96142.88;5048988;28;20440;-66
2021/01/04 05:52:17;;;;;;;65.17;33.10;;;;;;;3.53;68.67;96149.13;5049901;28;20458;-65
2021/01/04 05:54:43;;;;;;;58.80;32.77;;;;;;;3.53;69.40;96149.94;5051208;28;20460;-66
2021/01/04 05:57:13;;;;;;;64.13;32.40;;;;;;;3.01;70.81;96144.91;5059368;28;20760;-67
2021/01/04 05:59:49;;;;;;;64.53;32.97;;;;;;;3.10;70.89;96148.47;5058125;28;20241;-66
2021/01/04 06:02:33;;;;;;;60.10;32.57;;;;;;;3.36;70.39;96148.81;5043794;28;20433;-66
2021/01/04 06:05:14;;;;;;;63.80;32.17;;;;;;;3.20;70.35;96143.34;5049710;28;20464;-66
2021/01/04 06:07:42;;;;;;;60.87;33.43;;;;;;;3.44;70.24;96148.16;5052488;28;20916;-66
2021/01/04 06:10:18;;;;;;;61.80;31.30;;;;;;;3.56;69.40;96148.03;5054821;28;20913;-65
2021/01/04 06:12:46;;;;;;;55.40;32.83;;;;;;;3.55;69.15;96149.81;5055112;28;20429;-67
2021/01/04 06:15:12;;;;;;;56.30;31.77;;;;;;;3.57;69.06;96145.31;5054178;28;20460;-67
2021/01/04 06:17:42;;;;;;;57.97;32.50;;;;;;;3.60;68.79;96149.41;5055018;28;20433;-66
2021/01/04 06:20:21;;;;;;;57.73;30.50;;;;;;;3.66;68.60;96148.84;5062632;28;20464;-67
2021/01/04 06:22:48;;;;;;;62.70;32.20;;;;;;;3.68;69.15;96146.94;5054277;28;20483;-66
2021/01/04 06:25:15;;;;;;;58.50;32.00;;;;;;;3.68;68.63;96147.78;5053849;28;20948;-66
2021/01/04 06:27:43;;;;;;;59.73;31.83;;;;;;;3.78;68.20;96142.59;5055252;28;20582;-68
2021/01/04 06:30:24;;;;;;;51.93;29.03;;;;;;;3.79;68.19;96149.41;5055003;28;20963;-68
2021/01/04 06:32:51;;;;;;;60.63;32.23;;;;;;;3.77;68.35;96153.09;5053895;28;21024;-65
2021/01/04 06:35:21;;;;;;;61.50;33.07;;;;;;;3.73;68.38;96155.16;5060967;28;20445;-64
2021/01/04 06:37:47;;;;;;;57.47;29.97;;;;;;;3.70;68.45;96152.81;5050227;28;20438;-65
2021/01/04 06:40:37;;;;;;;61.47;30.70;;;;;;;3.38;69.41;96157.28;5054912;28;20669;-66
2021/01/04 06:43:27;;;;;;;61.50;31.30;;;;;;;3.51;69.54;96149.25;5054080;28;20428;-67
2021/01/04 06:46:13;;;;;;;49.23;29.80;;;;;;;3.55;69.21;96147.22;5057184;28;20429;-65
2021/01/04 06:49:07;;;;;;;64.03;32.67;;;;;;;3.50;69.83;96149.38;5049360;28;20957;-67
2021/01/04 06:51:57;;;;;;;62.60;30.40;;;;;;;3.62;69.13;96152.69;5066176;28;20479;-66
2021/01/04 06:54:36;;;;;;;60.00;32.27;;;;;;;3.52;69.46;96152.66;5061588;28;20698;-66
2021/01/04 06:57:39;;;;;;;53.77;30.77;;;;;;;3.73;68.86;96152.56;5075351;28;20503;-67
2021/01/04 07:00:17;;;;;;;55.17;31.53;;;;;;;3.64;68.57;96156.78;5070339;28;20421;-65
2021/01/04 07:02:52;;;;;;;54.60;31.40;;;;;;;3.57;68.56;96154.84;5072063;28;20885;-67
2021/01/04 07:05:36;;;;;;;57.67;31.60;;;;;;;3.57;69.58;96153.09;5065929;28;20449;-67
2021/01/04 07:08:15;;;;;;;61.67;31.53;;;;;;;3.48;69.84;96151.28;5073465;28;20428;-66
2021/01/04 07:11:07;;;;;;;55.40;31.60;;;;;;;3.46;69.87;96154.00;5072148;28;20464;-66
2021/01/04 07:13:57;;;;;;;53.90;29.70;;;;;;;3.50;69.44;96152.81;5069102;28;20444;-67
2021/01/04 07:17:04;;;;;;;57.23;31.10;;;;;;;3.29;70.77;96152.06;5061837;28;20470;-66
2021/01/04 07:20:06;;;;;;;57.33;32.43;;;;;;;3.48;69.38;96149.53;5040031;28;20493;-65
2021/01/04 07:22:46;;;;;;;54.47;31.23;;;;;;;3.51;70.11;96157.03;5066966;28;20425;-64
2021/01/04 07:25:40;;;;;;;59.10;31.27;;;;;;;3.61;68.89;96158.81;5073587;28;20491;-65
2021/01/04 07:28:40;;;;;;;53.50;30.40;;;;;;;3.57;69.07;96160.03;5073482;28;20432;-67
2021/01/04 07:31:10;;;;;;;58.13;31.70;;;;;;;3.43;69.11;96156.88;5069051;28;20546;-68
2021/01/04 07:33:53;;;;;;;56.93;32.37;;;;;;;3.58;69.16;96159.09;5072463;28;20520;-66
2021/01/04 07:36:37;;;;;;;57.87;31.17;;;;;;;3.58;69.54;96162.50;5058679;28;20425;-65
2021/01/04 07:39:33;;;;;;;53.60;31.50;;;;;;;3.64;68.95;96171.50;5073710;28;20446;-65
2021/01/04 07:42:03;;;;;;;57.90;31.10;;;;;;;3.53;69.15;96162.06;5070058;28;20432;-68
2021/01/04 07:45:07;;;;;;;57.93;31.63;;;;;;;3.61;69.31;96169.19;5073616;28;20487;-65
2021/01/04 07:47:39;;;;;;;58.47;31.10;;;;;;;3.52;69.16;96165.63;5072351;28;20485;-67
2021/01/04 07:50:27;;;;;;;59.20;33.40;;;;;;;3.50;69.20;96170.09;5068320;28;20510;-67
2021/01/04 07:53:15;;;;;;;57.30;31.47;;;;;;;2.89;70.94;96171.81;5075097;28;20452;-67
2021/01/04 07:56:13;;;;;;;60.50;32.37;;;;;;;3.24;70.86;96165.41;5076326;28;20429;-66
2021/01/04 07:59:06;;;;;;;63.20;32.03;;;;;;;3.46;70.13;96169.56;5068410;28;20447;-67
2021/01/04 08:01:41;;;;;;;60.07;31.07;;;;;;;3.51;69.24;96167.41;5063910;28;20409;-66
2021/01/04 08:04:39;;;;;;;56.80;31.80;;;;;;;3.60;69.37;96165.75;5073332;28;20440;-66
2021/01/04 08:07:19;;;;;;;55.33;30.20;;;;;;;3.32;70.37;96165.59;5072187;28;20443;-65
2021/01/04 08:10:00;;;;;;;56.50;30.43;;;;;;;3.64;69.08;96176.69;5071345;28;20424;-66
2021/01/04 08:12:35;;;;;;;64.23;33.27;;;;;;;3.64;69.52;96180.09;5071792;28;20451;-66
2021/01/04 08:15:24;;;;;;;53.57;29.20;;;;;;;3.70;69.01;96170.97;5068470;28;20457;-66
2021/01/04 08:17:57;;;;;;;60.43;30.83;;;;;;;3.84;68.12;96167.97;5053646;28;20437;-66
2021/01/04 08:20:23;;;;;;;62.70;32.80;;;;;;;3.85;68.47;96184.34;5055063;28;20432;-66
2021/01/04 08:23:27;;;;;;;53.27;31.33;;;;;;;3.89;68.72;96182.31;5072811;28;20781;-66
2021/01/04 08:26:14;;;;;;;58.10;31.40;;;;;;;3.86;68.16;96185.16;5073363;28;20416;-67
2021/01/04 08:29:05;;;;;;;58.43;31.70;;;;;;;3.98;68.08;96182.28;5038414;28;20482;-66
2021/01/04 08:31:45;;;;;;;66.40;34.77;;;;;;;4.04;68.34;96175.75;5070016;28;20465;-66
2021/01/04 08:34:19;;;;;;;62.77;37.20;;;;;;;3.84;67.94;96180.94;5055162;28;20444;-67
2021/01/04 08:36:55;;;;;;;64.37;37.80;;;;;;;3.92;67.85;96174.25;5070998;28;20780;-67
2021/01/04 08:39:20;;;;;;;60.13;31.50;;;;;;;4.01;67.76;96183.81;5069373;28;20497;-67
2021/01/04 08:42:10;;;;;;;56.97;31.57;;;;;;;3.15;70.09;96181.75;5070885;28;20421;-67
2021/01/04 08:44:36;;;;;;;60.40;31.53;;;;;;;3.81;68.65;96181.19;5066010;28;20245;-67
2021/01/04 08:47:30;;;;;;;57.47;31.67;;;;;;;3.68;69.42;96185.81;5062403;28;20433;-67
2021/01/04 08:50:30;;;;;;;58.87;32.03;;;;;;;3.81;68.92;96186.38;5059500;28;20438;-69
2021/01/04 08:53:09;;;;;;;55.87;30.97;;;;;;;3.95;68.08;96187.78;5055039;28;20457;-67
2021/01/04 08:55:35;;;;;;;56.50;31.33;;;;;;;4.04;67.92;96193.91;5039607;28;20454;-66
2021/01/04 08:58:42;;;;;;;56.87;31.93;;;;;;;4.11;68.12;96191.56;5069576;28;20931;-66
2021/01/04 09:01:27;;;;;;;56.47;31.67;;;;;;;3.93;68.31;96196.63;5063417;28;20429;-66
2021/01/04 09:04:30;;;;;;;59.03;31.60;;;;;;;3.72;68.43;96192.38;5062726;28;20449;-67
2021/01/04 09:07:18;;;;;;;61.47;32.27;;;;;;;3.42;69.05;96199.25;5055350;28;20425;-67
2021/01/04 09:10:14;;;;;;;58.73;31.17;;;;;;;3.81;68.74;96198.53;5070879;28;20425;-69
2021/01/04 09:12:42;;;;;;;58.07;31.30;;;;;;;3.63;69.82;96193.19;5071110;28;20421;-68
2021/01/04 09:15:12;;;;;;;55.83;31.43;;;;;;;3.90;68.25;96200.31;5059789;28;20462;-67
2021/01/04 09:17:53;;;;;;;64.23;32.07;;;;;;;3.47;69.81;96202.28;5073168;28;20420;-68
2021/01/04 09:20:23;;;;;;;63.17;32.20;;;;;;;3.86;69.43;96188.56;5059450;28;20448;-66
2021/01/04 09:23:10;;;;;;;59.37;32.50;;;;;;;4.11;68.15;96194.16;5073647;28;20508;-65
2021/01/04 09:25:50;;;;;;;63.50;37.10;;;;;;;4.19;68.12;96188.31;5062989;28;20516;-68
2021/01/04 09:28:18;;;;;;;52.73;30.80;;;;;;;3.90;68.36;96196.91;5063260;28;20790;-67
2021/01/04 09:30:45;;;;;;;54.27;28.67;;;;;;;4.08;67.66;96192.69;5051865;28;20516;-67
2021/01/04 09:33:13;;;;;;;73.43;36.53;;;;;;;3.42;69.72;96194.09;5052103;28;20431;-65
2021/01/04 09:35:40;;;;;;;58.50;31.83;;;;;;;3.56;69.22;96198.09;5055222;28;20444;-67
2021/01/04 09:38:20;;;;;;;60.27;33.70;;;;;;;3.87;68.26;96192.00;5070520;28;20432;-66
2021/01/04 09:40:51;;;;;;;63.47;33.13;;;;;;;3.74;69.15;96193.06;5068692;28;20882;-67
2021/01/04 09:43:21;;;;;;;57.30;31.70;;;;;;;3.73;69.70;96185.41;5070330;28;21051;-68
2021/01/04 09:45:46;;;;;;;56.03;31.47;;;;;;;3.89;69.00;96185.72;5067669;28;20424;-65
2021/01/04 09:48:34;;;;;;;60.60;33.70;;;;;;;4.13;68.40;96187.91;5069519;28;20941;-66
2021/01/04 09:51:03;;;;;;;51.83;29.23;;;;;;;4.10;68.51;96184.75;5067162;28;20692;-66
2021/01/04 09:53:34;;;;;;;58.53;31.27;;;;;;;4.05;68.44;96179.97;5044744;28;20931;-66
2021/01/04 09:56:09;;;;;;;59.50;32.00;;;;;;;4.07;68.71;96182.47;5067003;28;20840;-65
2021/01/04 09:58:35;;;;;;;60.73;35.47;;;;;;;4.15;67.81;96167.84;5059272;28;20878;-67
2021/01/04 10:01:09;;;;;;;60.97;35.20;;;;;;;4.03;68.06;96176.72;5069700;28;20417;-65
2021/01/04 10:03:35;;;;;;;55.13;29.33;;;;;;;4.08;68.14;96176.31;5070351;28;20653;-65
2021/01/04 10:06:06;;;;;;;59.53;29.77;;;;;;;4.21;67.53;96165.66;5068842;28;20919;-65
2021/01/04 10:08:32;;;;;;;56.10;30.60;;;;;;;4.22;67.49;96164.69;5069363;28;20424;-65
2021/01/04 10:10:59;;;;;;;54.20;29.93;;;;;;;4.20;68.08;96169.19;5069655;28;20942;-65
2021/01/04 10:13:27;;;;;;;50.20;29.80;;;;;;;3.83;68.24;96161.16;5070876;28;20809;-68
2021/01/04 10:15:54;;;;;;;54.73;26.67;;;;;;;3.73;68.64;96165.50;5067851;28;20996;-68
2021/01/04 10:18:51;;;;;;;62.57;32.27;;;;;;;3.90;67.84;96166.63;5052482;28;20432;-68
2021/01/04 10:21:24;;;;;;;53.10;30.03;;;;;;;4.28;67.00;96164.16;5056652;28;20492;-68
2021/01/04 10:23:55;;;;;;;51.87;29.00;;;;;;;4.26;66.36;96161.69;5069160;28;20539;-66
2021/01/04 10:26:21;;;;;;;47.53;28.20;;;;;;;4.06;67.45;96160.06;5046723;28;20436;-67
2021/01/04 10:28:47;;;;;;;52.23;27.00;;;;;;;4.24;66.63;96165.38;5049972;28;20517;-67
2021/01/04 10:31:28;;;;;;;46.70;27.40;;;;;;;4.32;65.55;96154.31;5067404;28;20563;-66
2021/01/04 10:34:09;;;;;;;48.33;27.63;;;;;;;4.25;65.73;96156.66;5070153;28;20271;-67
2021/01/04 10:36:35;;;;;;;45.93;28.10;;;;;;;4.08;66.60;96163.34;5070823;28;20433;-67
2021/01/04 10:39:06;;;;;;;44.57;27.03;;;;;;;4.37;65.81;96157.28;5069001;28;20478;-66
2021/01/04 10:41:34;;;;;;;48.30;26.73;;;;;;;4.25;65.32;96157.44;5067528;28;20421;-66
2021/01/04 10:44:07;;;;;;;43.60;26.77;;;;;;;4.29;65.54;96164.00;5052292;28;20456;-67
2021/01/04 10:46:46;;;;;;;49.40;28.27;;;;;;;4.01;66.82;96165.66;5067435;28;20507;-67
2021/01/04 10:49:33;;;;;;;55.00;28.83;;;;;;;4.05;66.64;96169.59;5066872;28;20431;-66
2021/01/04 10:51:59;;;;;;;51.20;27.70;;;;;;;4.30;65.93;96162.22;5055440;28;20465;-67
2021/01/04 10:54:42;;;;;;;48.43;27.70;;;;;;;4.37;65.70;96158.13;5049343;28;20442;-65
2021/01/04 10:57:20;;;;;;;45.10;27.00;;;;;;;4.51;65.53;96153.47;5054775;28;20421;-66
2021/01/04 10:59:58;;;;;;;42.97;26.40;;;;;;;4.58;64.94;96151.94;5047390;28;20439;-67
2021/01/04 11:02:24;;;;;;;46.37;26.30;;;;;;;4.54;65.25;96153.16;5070651;28;20432;-65
2021/01/04 11:04:54;;;;;;;48.57;27.73;;;;;;;4.38;64.68;96151.16;5073905;28;20444;-69
2021/01/04 11:07:27;;;;;;;41.63;25.53;;;;;;;4.28;65.26;96148.59;5049823;28;20212;-67
2021/01/04 11:09:53;;;;;;;48.33;25.33;;;;;;;3.98;65.46;96150.38;5059161;28;20422;-65
2021/01/04 11:12:21;;;;;;;44.90;25.80;;;;;;;4.10;64.25;96143.25;5072941;28;20456;-67
2021/01/04 11:14:59;;;;;;;42.20;25.63;;;;;;;4.09;63.98;96145.06;5069284;28;20506;-65
2021/01/04 11:17:36;;;;;;;40.43;23.73;;;;;;;4.09;64.30;96139.06;5072564;28;20428;-69
2021/01/04 11:20:15;;;;;;;40.87;24.53;;;;;;;4.16;64.70;96140.13;5068860;28;20436;-66
2021/01/04 11:22:41;;;;;;;40.07;21.30;;;;;;;4.03;63.89;96135.25;5070033;28;20432;-68
2021/01/04 11:25:08;;;;;;;36.90;19.97;;;;;;;3.55;63.93;96142.03;5073637;28;20436;-68
2021/01/04 11:27:34;;;;;;;30.20;18.57;;;;;;;3.16;64.34;96134.19;5068582;28;20508;-66
2021/01/04 11:30:00;;;;;;;35.87;19.47;;;;;;;3.45;63.43;96142.00;5072675;28;20443;-66
2021/01/04 11:32:26;;;;;;;28.47;17.70;;;;;;;3.40;62.84;96139.03;5068940;28;20425;-66
2021/01/04 11:34:54;;;;;;;30.30;18.03;;;;;;;3.73;61.96;96126.63;5071170;28;20213;-66
2021/01/04 11:37:22;;;;;;;30.63;18.07;;;;;;;3.37;62.87;96128.94;5069932;28;20191;-65
2021/01/04 11:39:48;;;;;;;33.43;19.30;;;;;;;3.76;61.89;96123.78;5071057;28;20519;-67
2021/01/04 11:42:14;;;;;;;32.07;19.33;;;;;;;4.05;61.25;96129.91;5071953;28;20500;-66
2021/01/04 11:44:40;;;;;;;28.10;18.67;;;;;;;3.91;61.03;96120.75;5070593;28;20558;-68
2021/01/04 11:47:06;;;;;;;31.70;19.77;;;;;;;4.33;60.69;96115.25;5072173;28;20255;-67
2021/01/04 11:49:32;;;;;;;29.87;18.00;;;;;;;4.22;60.97;96118.00;5055605;28;20273;-67
2021/01/04 11:51:58;;;;;;;29.27;18.63;;;;;;;4.22;60.50;96111.03;5072823;28;20488;-67
2021/01/04 11:54:24;;;;;;;33.53;19.30;;;;;;;3.94;61.74;96112.72;5072103;28;21128;-66
2021/01/04 11:56:51;;;;;;;30.50;17.80;;;;;;;4.08;60.13;96117.47;5073157;28;20186;-65
2021/01/04 11:59:16;;;;;;;27.90;18.77;;;;;;;4.08;60.34;96107.09;5065388;28;20432;-66
2021/01/04 12:01:42;;;;;;;29.33;18.30;;;;;;;4.03;59.79;96106.72;5070138;28;20417;-67
2021/01/04 12:04:08;;;;;;;26.50;17.53;;;;;;;4.09;60.48;96106.16;5072109;28;20214;-65
2021/01/04 12:06:35;;;;;;;29.87;17.70;;;;;;;4.06;59.95;96103.84;5068910;28;20228;-66
2021/01/04 12:09:01;;;;;;;27.40;17.10;;;;;;;3.93;60.45;96101.53;5062947;28;20459;-67